Time;durP1;ratioP1;P1;durP2;ratioP2;P2;SDS_P1;SDS_P2;PMS_P1;PMS_P2;Temp;Humidity;BMP_temperature;BMP_pressure;BME280_temperature;BME280_humidity;BME280_pressure;Samples;Min_cycle;Max_cycle;Signal;HPM_P1;HPM_P2
2023/01/19 00:01:15;;;;;;;23.27;12.02;;;;;;;-0.09;100.00;99935.13;5045264;28;20098;-80
2023/01/19 00:03:41;;;;;;;28.90;11.18;;;;;;;-0.24;100.00;99928.53;5044231;28;20040;-79
2023/01/19 00:06:07;;;;;;;22.27;11.80;;;;;;;-0.12;100.00;99924.31;5043484;28;20041;-79
2023/01/19 00:08:34;;;;;;;25.23;11.65;;;;;;;-0.17;100.00;99926.38;5043045;28;20521;-78
2023/01/19 00:11:00;;;;;;;24.65;13.02;;;;;;;-0.11;100.00;99929.31;5041613;28;20033;-80
2023/01/19 00:13:25;;;;;;;27.70;12.57;;;;;;;-0.18;100.00;99928.09;5029562;28;20110;-80
2023/01/19 00:15:51;;;;;;;21.63;11.88;;;;;;;-0.15;100.00;99921.97;5040504;28;20037;-79
2023/01/19 00:18:16;;;;;;;30.38;13.20;;;;;;;-0.12;100.00;99935.31;5030325;28;20032;-79
2023/01/19 00:20:44;;;;;;;27.70;11.82;;;;;;;-0.16;100.00;99933.09;5022501;28;20498;-78
2023/01/19 00:23:10;;;;;;;23.00;12.23;;;;;;;-0.20;100.00;99930.75;5041675;28;20638;-79
2023/01/19 00:25:41;;;;;;;22.23;11.43;;;;;;;-0.27;100.00;99937.19;5025211;28;20432;-79
2023/01/19 00:28:07;;;;;;;27.98;13.73;;;;;;;-0.39;100.00;99945.72;5046332;28;20084;-78
2023/01/19 00:30:33;;;;;;;21.65;11.93;;;;;;;-0.20;100.00;99948.59;5041899;28;20048;-81
2023/01/19 00:32:58;;;;;;;22.10;12.32;;;;;;;-0.24;100.00;99947.19;5046692;28;20036;-77
2023/01/19 00:35:24;;;;;;;23.05;11.85;;;;;;;-0.20;100.00;99942.69;5055456;28;20049;-80
2023/01/19 00:37:49;;;;;;;24.83;12.57;;;;;;;-0.29;100.00;99948.44;5046228;28;20045;-79
2023/01/19 00:40:15;;;;;;;22.75;11.55;;;;;;;-0.37;100.00;99948.16;5043133;28;20056;-78
2023/01/19 00:42:43;;;;;;;23.35;12.35;;;;;;;-0.34;100.00;99948.75;5047278;28;20623;-78
2023/01/19 00:45:17;;;;;;;21.70;11.88;;;;;;;-0.30;100.00;99947.63;5050766;28;20040;-79
2023/01/19 00:47:44;;;;;;;23.48;12.68;;;;;;;-0.34;100.00;99947.94;5046164;28;20493;-78
2023/01/19 00:50:11;;;;;;;24.38;11.77;;;;;;;-0.33;100.00;99940.19;5048103;28;20037;-78
2023/01/19 00:52:37;;;;;;;28.95;12.43;;;;;;;-0.25;100.00;99937.91;5046672;28;20033;-79
2023/01/19 00:55:04;;;;;;;23.30;11.23;;;;;;;-0.21;100.00;99936.78;5045546;28;20067;-78
2023/01/19 00:57:29;;;;;;;25.83;11.70;;;;;;;-0.24;100.00;99936.19;5062765;28;20037;-79
2023/01/19 00:59:55;;;;;;;26.38;12.93;;;;;;;-0.22;100.00;99934.34;5049103;28;20824;-79
2023/01/19 01:02:20;;;;;;;21.15;12.15;;;;;;;-0.24;100.00;99933.66;5049080;28;20071;-79
2023/01/19 01:04:46;;;;;;;21.55;11.60;;;;;;;-0.17;100.00;99936.56;5061642;28;20041;-78
2023/01/19 01:07:11;;;;;;;23.40;12.40;;;;;;;-0.21;100.00;99941.06;5046668;28;20036;-80
2023/01/19 01:09:37;;;;;;;21.40;11.68;;;;;;;-0.31;100.00;99945.19;5048954;28;20036;-79
2023/01/19 01:12:02;;;;;;;27.08;12.43;;;;;;;-0.24;100.00;99939.53;5044242;28;20701;-80
2023/01/19 01:14:28;;;;;;;28.27;12.98;;;;;;;-0.27;100.00;99938.94;5043077;28;20025;-79
2023/01/19 01:16:53;;;;;;;25.02;12.70;;;;;;;-0.24;100.00;99943.84;5056930;28;20016;-79
2023/01/19 01:19:20;;;;;;;27.58;12.80;;;;;;;-0.24;100.00;99942.09;5049823;28;20048;-78
2023/01/19 01:21:45;;;;;;;28.42;13.48;;;;;;;-0.27;100.00;99942.31;5052077;28;20056;-79
2023/01/19 01:24:11;;;;;;;23.30;11.75;;;;;;;-0.22;100.00;99944.53;5063104;28;20033;-79
2023/01/19 01:26:36;;;;;;;27.38;12.15;;;;;;;-0.22;100.00;99932.59;5063093;28;20068;-79
2023/01/19 01:29:04;;;;;;;24.48;12.00;;;;;;;-0.23;100.00;99933.53;5030559;28;20025;-78
2023/01/19 01:31:30;;;;;;;25.20;13.73;;;;;;;-0.13;100.00;99933.69;5047653;28;20516;-79
2023/01/19 01:33:56;;;;;;;26.25;12.18;;;;;;;-0.17;100.00;99946.75;5064344;28;20119;-77
2023/01/19 01:36:21;;;;;;;27.65;13.27;;;;;;;-0.08;100.00;99946.91;5048620;28;20110;-80
2023/01/19 01:38:47;;;;;;;24.08;12.00;;;;;;;-0.18;100.00;99950.25;5049377;28;20428;-78
2023/01/19 01:41:12;;;;;;;25.55;12.35;;;;;;;-0.26;100.00;99945.69;5047335;28;20497;-84
2023/01/19 01:43:47;;;;;;;21.00;11.82;;;;;;;-0.26;100.00;99945.69;5060332;28;20037;-79
2023/01/19 01:46:14;;;;;;;21.90;11.77;;;;;;;-0.30;100.00;99957.81;5060769;28;20052;-79
2023/01/19 01:48:45;;;;;;;25.85;12.63;;;;;;;-0.17;100.00;99957.78;5049958;28;20444;-79
2023/01/19 01:51:26;;;;;;;24.80;12.52;;;;;;;-0.27;100.00;99956.78;5028657;28;20039;-78
2023/01/19 01:54:20;;;;;;;22.65;12.30;;;;;;;-0.24;100.00;99961.69;5038867;28;20025;-79
2023/01/19 01:56:48;;;;;;;30.08;12.45;;;;;;;-0.36;100.00;99972.69;5039208;28;20044;-78
2023/01/19 01:59:28;;;;;;;24.05;12.77;;;;;;;-0.22;100.00;99958.09;5048426;28;20032;-77
2023/01/19 02:04:56;;;;;;;25.50;13.27;;;;;;;-0.34;100.00;99958.13;5064162;28;20045;-81
2023/01/19 02:13:21;;;;;;;24.63;12.05;;;;;;;-0.23;100.00;99943.75;5009688;28;1054733;-79
2023/01/19 02:15:49;;;;;;;23.40;12.10;;;;;;;-0.25;100.00;99953.19;5043783;28;20033;-79
2023/01/19 02:18:15;;;;;;;24.38;12.23;;;;;;;-0.38;100.00;99952.41;5051434;28;20509;-79
2023/01/19 02:20:47;;;;;;;30.33;13.93;;;;;;;-0.35;100.00;99951.41;5046057;28;20037;-79
2023/01/19 02:23:19;;;;;;;32.08;12.95;;;;;;;-0.21;100.00;99944.44;5050825;28;20119;-78
2023/01/19 02:25:46;;;;;;;29.30;12.25;;;;;;;-0.29;100.00;99939.03;5060169;28;20037;-80
2023/01/19 02:28:13;;;;;;;27.95;12.82;;;;;;;-0.33;100.00;99940.19;5064038;28;20065;-79
2023/01/19 02:30:40;;;;;;;25.15;12.57;;;;;;;-0.27;100.00;99944.03;5024505;28;20041;-78
2023/01/19 02:33:06;;;;;;;23.48;11.60;;;;;;;-0.12;100.00;99935.31;5062682;28;20492;-79
2023/01/19 02:35:33;;;;;;;28.55;12.25;;;;;;;-0.15;100.00;99929.63;5045184;28;20086;-78
2023/01/19 02:38:01;;;;;;;24.27;11.85;;;;;;;-0.10;100.00;99935.22;5039133;28;20020;-78
2023/01/19 02:40:27;;;;;;;27.90;11.77;;;;;;;-0.01;100.00;99929.47;5049145;28;20045;-79
2023/01/19 02:42:59;;;;;;;21.75;12.23;;;;;;;-0.05;100.00;99925.50;5047392;28;20033;-78
2023/01/19 02:45:25;;;;;;;23.75;11.82;;;;;;;-0.15;100.00;99932.16;5046174;28;20056;-81
2023/01/19 02:47:51;;;;;;;26.17;11.63;;;;;;;-0.09;100.00;99937.66;5047801;28;20029;-80
2023/01/19 02:50:40;;;;;;;27.85;11.43;;;;;;;-0.06;100.00;99941.72;5046195;28;20448;-80
2023/01/19 02:53:18;;;;;;;23.05;11.15;;;;;;;-0.14;100.00;99937.16;5047115;28;20404;-78
2023/01/19 02:55:50;;;;;;;24.60;10.30;;;;;;;-0.12;100.00;99942.97;5045772;28;20091;-82
2023/01/19 02:58:32;;;;;;;28.27;11.90;;;;;;;-0.16;100.00;99945.84;5047838;28;20061;-83
2023/01/19 03:01:16;;;;;;;17.42;9.55;;;;;;;-0.11;100.00;99939.50;5065375;28;20036;-79
2023/01/19 03:04:11;;;;;;;25.40;11.02;;;;;;;-0.08;100.00;99935.91;5049451;28;20485;-79
2023/01/19 03:06:51;;;;;;;26.55;11.32;;;;;;;0.05;100.00;99938.41;5024941;28;20693;-79
2023/01/19 03:09:25;;;;;;;20.65;11.07;;;;;;;0.04;100.00;99944.41;5042737;28;20079;-79
2023/01/19 03:12:03;;;;;;;21.15;10.57;;;;;;;0.19;100.00;99940.81;5047562;28;20083;-80
2023/01/19 03:14:32;;;;;;;24.50;10.65;;;;;;;0.06;100.00;99945.13;5047130;28;20115;-78
2023/01/19 03:17:02;;;;;;;22.83;10.65;;;;;;;0.01;100.00;99942.91;5043186;28;20033;-79
2023/01/19 03:19:36;;;;;;;29.65;10.77;;;;;;;0.20;100.00;99942.41;5047687;28;20067;-82
2023/01/19 03:22:08;;;;;;;21.65;10.43;;;;;;;0.17;100.00;99952.81;5044903;28;20094;-82
2023/01/19 03:24:39;;;;;;;24.40;10.80;;;;;;;0.18;100.00;99946.81;5045985;28;20065;-82
2023/01/19 03:27:30;;;;;;;21.35;10.10;;;;;;;0.24;100.00;99963.41;5040578;28;20664;-79
2023/01/19 03:30:03;;;;;;;25.30;10.15;;;;;;;0.22;100.00;99953.31;5024743;28;20047;-81
2023/01/19 03:32:38;;;;;;;21.52;10.40;;;;;;;0.22;100.00;99950.75;5058998;28;20048;-78
2023/01/19 03:35:10;;;;;;;30.50;10.23;;;;;;;0.31;100.00;99965.41;5049566;28;20432;-78
2023/01/19 03:37:43;;;;;;;29.47;11.03;;;;;;;0.28;100.00;99957.16;5060215;28;20055;-77
2023/01/19 03:40:09;;;;;;;;;;;;;;;0.42;100.00;99967.19;5048072;28;20413;-79
2023/01/19 03:42:36;;;;;;;29.08;11.65;;;;;;;0.27;100.00;99955.56;5063725;28;20663;-80
2023/01/19 03:45:02;;;;;;;33.00;14.18;;;;;;;0.24;100.00;99960.84;5042861;28;20048;-79
2023/01/19 03:47:28;;;;;;;31.10;12.80;;;;;;;0.25;100.00;99954.84;5047106;28;20080;-78
2023/01/19 03:49:55;;;;;;;46.22;15.93;;;;;;;0.23;100.00;99967.72;5047409;28;20048;-80
2023/01/19 03:52:31;;;;;;;35.97;14.30;;;;;;;0.25;100.00;99965.06;5049785;28;20039;-78
2023/01/19 03:54:56;;;;;;;32.25;13.50;;;;;;;0.13;100.00;99961.63;5043767;28;20040;-77
2023/01/19 03:57:22;;;;;;;31.45;14.23;;;;;;;0.18;100.00;99960.38;5045924;28;20059;-77
2023/01/19 03:59:48;;;;;;;37.67;18.10;;;;;;;0.18;100.00;99965.47;5046617;28;20033;-78
2023/01/19 04:02:14;;;;;;;37.38;16.30;;;;;;;0.07;100.00;99972.25;5045174;28;20172;-78
2023/01/19 04:04:39;;;;;;;34.17;13.40;;;;;;;0.05;100.00;99967.25;5045238;28;20033;-78
2023/01/19 04:07:05;;;;;;;29.58;13.02;;;;;;;0.11;100.00;99963.47;5048985;28;20025;-79
2023/01/19 04:09:31;;;;;;;25.55;13.25;;;;;;;0.10;100.00;99972.84;5048431;28;20068;-78
2023/01/19 04:11:56;;;;;;;30.60;13.65;;;;;;;0.20;100.00;99978.13;5043247;28;20465;-77
2023/01/19 04:14:22;;;;;;;30.92;12.77;;;;;;;0.23;100.00;99977.91;5064369;28;20029;-77
2023/01/19 04:16:47;;;;;;;31.33;13.07;;;;;;;0.12;100.00;99976.13;5028883;28;20045;-77
2023/01/19 04:19:12;;;;;;;28.35;12.60;;;;;;;0.10;100.00;99982.25;5042845;28;20036;-78
2023/01/19 04:21:38;;;;;;;40.25;12.63;;;;;;;0.13;100.00;99984.56;5047145;28;20047;-79
2023/01/19 04:24:04;;;;;;;32.88;13.50;;;;;;;0.13;100.00;99969.25;5025047;28;20021;-78
2023/01/19 04:26:29;;;;;;;35.58;16.25;;;;;;;0.12;100.00;99976.13;5041301;28;20033;-79
2023/01/19 04:28:55;;;;;;;36.38;14.98;;;;;;;-0.04;100.00;99976.38;5042066;28;20041;-78
2023/01/19 04:31:22;;;;;;;33.97;15.57;;;;;;;-0.01;100.00;99975.34;5061660;28;20037;-79
2023/01/19 04:33:47;;;;;;;36.33;13.48;;;;;;;0.01;100.00;99976.06;5047871;28;20119;-78
2023/01/19 04:36:13;;;;;;;38.08;15.82;;;;;;;0.13;100.00;99980.31;5045015;28;20091;-78
2023/01/19 04:38:38;;;;;;;39.75;14.65;;;;;;;0.05;100.00;99976.66;5064904;28;20033;-78
2023/01/19 04:41:04;;;;;;;32.78;13.85;;;;;;;-0.08;100.00;99972.41;5044892;28;20068;-77
2023/01/19 04:43:29;;;;;;;37.45;14.75;;;;;;;-0.18;100.00;99983.38;5059355;28;20035;-78
2023/01/19 04:45:55;;;;;;;39.63;14.57;;;;;;;-0.23;100.00;99992.16;5043440;28;20401;-78
2023/01/19 04:48:20;;;;;;;34.05;14.82;;;;;;;-0.20;100.00;99984.28;5043667;28;20535;-77
2023/01/19 04:50:46;;;;;;;37.70;15.07;;;;;;;-0.32;100.00;99992.78;5040419;28;20041;-77
2023/01/19 04:53:12;;;;;;;32.88;14.55;;;;;;;-0.23;100.00;99996.41;5059803;28;20037;-78
2023/01/19 04:55:38;;;;;;;40.72;17.27;;;;;;;-0.25;100.00;99995.72;5048740;28;20052;-78
2023/01/19 04:58:03;;;;;;;42.22;17.00;;;;;;;-0.30;100.00;99995.19;5049037;28;20040;-78
2023/01/19 05:00:29;;;;;;;41.17;16.10;;;;;;;-0.24;100.00;100003.25;5047119;28;20409;-78
2023/01/19 05:02:54;;;;;;;38.25;15.18;;;;;;;-0.33;100.00;100001.34;5049240;28;20056;-77
2023/01/19 05:05:20;;;;;;;36.72;16.15;;;;;;;-0.33;100.00;100001.34;5043482;28;20041;-77
2023/01/19 05:07:45;;;;;;;38.10;15.50;;;;;;;-0.41;100.00;100001.88;5064328;28;20741;-77
2023/01/19 05:10:11;;;;;;;37.25;16.20;;;;;;;-0.32;100.00;100010.63;5042356;28;20052;-78
2023/01/19 05:12:37;;;;;;;37.13;15.00;;;;;;;-0.30;100.00;100008.78;5049125;28;20040;-79
2023/01/19 05:15:03;;;;;;;40.08;15.82;;;;;;;-0.45;100.00;100013.19;5050008;28;20029;-78
2023/01/19 05:17:29;;;;;;;37.83;15.27;;;;;;;-0.43;100.00;100008.78;5043972;28;22580;-79
2023/01/19 05:19:54;;;;;;;33.88;14.25;;;;;;;-0.54;100.00;100016.34;5044330;28;20029;-79
2023/01/19 05:22:20;;;;;;;34.15;15.52;;;;;;;-0.47;100.00;100014.19;5048493;28;20033;-78
2023/01/19 05:24:45;;;;;;;31.33;13.43;;;;;;;-0.53;100.00;100017.16;5042530;28;20102;-80
2023/01/19 05:27:11;;;;;;;32.03;14.05;;;;;;;-0.53;100.00;100012.06;5047385;28;20048;-78
2023/01/19 05:29:36;;;;;;;29.27;13.15;;;;;;;-0.41;100.00;100017.16;5052323;28;20536;-80
2023/01/19 05:32:02;;;;;;;28.25;13.20;;;;;;;-0.40;100.00;100012.84;5048040;28;20378;-77
2023/01/19 05:34:27;;;;;;;28.55;13.32;;;;;;;-0.55;100.00;100003.72;5045350;28;20029;-78
2023/01/19 05:36:53;;;;;;;27.08;12.70;;;;;;;-0.50;100.00;100012.69;5046777;28;20417;-79
2023/01/19 05:39:18;;;;;;;21.23;10.48;;;;;;;-0.51;100.00;100017.88;5032810;28;20033;-80
2023/01/19 05:41:44;;;;;;;19.65;9.88;;;;;;;-0.49;100.00;100021.13;5049868;28;20043;-79
2023/01/19 05:44:10;;;;;;;22.85;11.27;;;;;;;-0.51;100.00;100020.41;5045956;28;20033;-81
2023/01/19 05:46:36;;;;;;;20.20;9.73;;;;;;;-0.37;100.00;100034.78;5030643;28;20537;-79
2023/01/19 05:49:03;;;;;;;22.70;9.85;;;;;;;-0.44;100.00;100029.28;5050343;28;20040;-78
2023/01/19 05:51:39;;;;;;;16.27;8.32;;;;;;;-0.28;100.00;100032.41;5045906;28;20512;-79
2023/01/19 05:54:04;;;;;;;16.95;8.43;;;;;;;-0.41;100.00;100031.63;5044971;28;20485;-78
2023/01/19 05:56:31;;;;;;;15.73;8.80;;;;;;;-0.36;100.00;100034.66;5046228;28;20128;-79
2023/01/19 05:58:58;;;;;;;14.65;8.05;;;;;;;-0.25;100.00;100032.19;5046280;28;20402;-78
2023/01/19 06:01:23;;;;;;;19.25;9.45;;;;;;;-0.33;100.00;100037.00;5046109;28;20606;-79
2023/01/19 06:03:49;;;;;;;18.58;9.80;;;;;;;-0.25;100.00;100039.84;5046876;28;20068;-79
2023/01/19 06:06:14;;;;;;;45.40;15.73;;;;;;;-0.40;100.00;100038.34;5046814;28;20041;-78
2023/01/19 06:08:41;;;;;;;108.38;30.48;;;;;;;-0.24;100.00;100035.56;5036861;28;20029;-79
2023/01/19 06:11:06;;;;;;;54.80;16.85;;;;;;;-0.32;100.00;100042.91;5054847;28;20093;-80
2023/01/19 06:13:33;;;;;;;49.92;16.42;;;;;;;-0.36;100.00;100032.09;5060064;28;20195;-80
2023/01/19 06:15:59;;;;;;;23.98;11.40;;;;;;;-0.35;100.00;100023.56;5051574;28;20123;-81
2023/01/19 06:18:25;;;;;;;39.20;15.35;;;;;;;-0.43;100.00;100021.53;5046832;28;20022;-79
2023/01/19 06:20:57;;;;;;;20.38;9.77;;;;;;;-0.46;100.00;100018.38;5061708;28;20514;-80
2023/01/19 06:23:26;;;;;;;27.08;11.77;;;;;;;-0.35;100.00;100023.56;5044499;28;20049;-79
2023/01/19 06:25:51;;;;;;;23.73;10.40;;;;;;;-0.29;100.00;100035.06;5062877;28;20045;-79
2023/01/19 06:28:17;;;;;;;21.73;10.20;;;;;;;-0.29;100.00;100040.16;5048348;28;20047;-77
2023/01/19 06:30:47;;;;;;;17.48;9.02;;;;;;;-0.31;100.00;100042.81;5059673;28;20041;-79
2023/01/19 06:33:13;;;;;;;18.63;8.50;;;;;;;-0.33;100.00;100043.84;5063006;28;20028;-79
2023/01/19 06:35:42;;;;;;;37.92;15.57;;;;;;;-0.33;100.00;100051.50;5029030;28;20408;-79
2023/01/19 06:38:07;;;;;;;21.98;9.95;;;;;;;-0.26;100.00;100040.78;5048413;28;20025;-80
2023/01/19 06:40:32;;;;;;;17.73;8.95;;;;;;;-0.31;100.00;100049.66;5046077;28;20037;-79
2023/01/19 06:42:58;;;;;;;18.55;9.40;;;;;;;-0.26;100.00;100057.81;5069281;28;20090;-78
2023/01/19 06:45:23;;;;;;;18.33;10.30;;;;;;;-0.26;100.00;100071.34;5046293;28;20052;-81
2023/01/19 06:47:49;;;;;;;22.17;10.27;;;;;;;-0.25;100.00;100072.97;5050437;28;20040;-77
2023/01/19 06:50:14;;;;;;;18.70;10.23;;;;;;;-0.21;100.00;100071.88;5029165;28;20497;-79
2023/01/19 06:52:41;;;;;;;19.20;10.80;;;;;;;-0.31;100.00;100070.84;5050080;28;20033;-79
2023/01/19 06:55:09;;;;;;;22.55;12.80;;;;;;;-0.19;100.00;100076.81;5044012;28;20033;-78
2023/01/19 06:57:37;;;;;;;23.63;10.98;;;;;;;-0.09;100.00;100085.50;5066012;28;20063;-78
2023/01/19 07:00:06;;;;;;;21.85;11.15;;;;;;;-0.24;100.00;100089.91;5041452;28;20058;-79
2023/01/19 07:02:33;;;;;;;27.75;13.50;;;;;;;-0.13;100.00;100096.81;5050589;28;20082;-78
2023/01/19 07:04:58;;;;;;;22.45;11.43;;;;;;;-0.12;100.00;100095.06;5024159;28;20804;-78
2023/01/19 07:07:24;;;;;;;22.70;11.45;;;;;;;-0.11;100.00;100106.91;5039817;28;20037;-78
2023/01/19 07:09:50;;;;;;;22.85;11.75;;;;;;;-0.27;100.00;100100.28;5052077;28;20047;-79
2023/01/19 07:12:16;;;;;;;27.60;12.32;;;;;;;-0.28;100.00;100111.41;5049230;28;20025;-79
2023/01/19 07:14:41;;;;;;;28.05;13.68;;;;;;;-0.29;100.00;100114.06;5049456;28;20056;-80
2023/01/19 07:17:07;;;;;;;26.25;12.25;;;;;;;-0.24;100.00;100117.13;5026970;28;20037;-80
2023/01/19 07:19:34;;;;;;;24.33;11.93;;;;;;;-0.16;100.00;100114.06;5062854;28;20112;-79
2023/01/19 07:22:00;;;;;;;26.67;12.48;;;;;;;-0.11;100.00;100122.22;5048770;28;20532;-79
2023/01/19 07:24:25;;;;;;;28.83;12.40;;;;;;;-0.15;100.00;100111.41;5047459;28;20025;-78
2023/01/19 07:26:51;;;;;;;28.90;12.45;;;;;;;-0.12;100.00;100121.38;5062978;28;20048;-77
2023/01/19 07:29:16;;;;;;;31.15;13.70;;;;;;;-0.11;100.00;100129.84;5061179;28;20039;-79
2023/01/19 07:31:41;;;;;;;23.70;12.32;;;;;;;-0.06;100.00;100128.63;5052227;28;20040;-78
2023/01/19 07:34:07;;;;;;;27.55;13.18;;;;;;;-0.10;100.00;100132.28;5044170;28;20032;-79
2023/01/19 07:36:32;;;;;;;26.40;12.77;;;;;;;-0.01;100.00;100123.22;5043668;28;20047;-80
2023/01/19 07:38:58;;;;;;;39.88;16.23;;;;;;;-0.11;100.00;100134.97;5044813;28;20030;-78
2023/01/19 07:41:23;;;;;;;33.35;13.18;;;;;;;-0.21;100.00;100138.13;5059973;28;20044;-79
2023/01/19 07:43:50;;;;;;;27.85;12.88;;;;;;;-0.10;100.00;100149.31;5029709;28;20040;-80
2023/01/19 07:46:15;;;;;;;28.55;12.88;;;;;;;-0.10;100.00;100155.22;5047795;28;20045;-79
2023/01/19 07:48:43;;;;;;;27.02;11.80;;;;;;;-0.15;100.00;100153.91;5056721;28;20103;-80
2023/01/19 07:51:10;;;;;;;28.73;13.30;;;;;;;-0.18;100.00;100156.66;5031102;28;20037;-79
2023/01/19 07:53:36;;;;;;;31.15;13.13;;;;;;;-0.15;100.00;100161.53;5047356;28;20051;-80
2023/01/19 07:56:06;;;;;;;29.23;12.55;;;;;;;-0.15;100.00;100174.28;5056404;28;20041;-80
2023/01/19 07:58:31;;;;;;;29.58;13.48;;;;;;;-0.15;100.00;100174.28;5063267;28;20048;-79
2023/01/19 08:00:57;;;;;;;30.08;13.30;;;;;;;-0.09;100.00;100173.91;5063913;28;20118;-80
2023/01/19 08:03:22;;;;;;;28.40;13.07;;;;;;;-0.11;100.00;100179.09;5047019;28;20516;-81
2023/01/19 08:05:50;;;;;;;29.42;13.60;;;;;;;0.01;100.00;100179.19;5043003;28;20417;-80
2023/01/19 08:08:16;;;;;;;29.25;13.02;;;;;;;0.02;100.00;100181.66;5040035;28;20041;-79
2023/01/19 08:10:41;;;;;;;39.50;13.98;;;;;;;-0.03;100.00;100179.38;5061794;28;20083;-79
2023/01/19 08:13:07;;;;;;;29.38;13.70;;;;;;;-0.09;100.00;100184.91;5033754;28;20045;-80
2023/01/19 08:15:32;;;;;;;36.80;15.30;;;;;;;-0.12;100.00;100191.94;5047569;28;20040;-80
2023/01/19 08:18:04;;;;;;;35.30;16.10;;;;;;;0.00;100.00;100198.78;5044083;28;20021;-79
2023/01/19 08:20:30;;;;;;;30.97;15.27;;;;;;;-0.06;100.00;100196.63;5063516;28;20064;-80
2023/01/19 08:22:58;;;;;;;32.80;16.02;;;;;;;-0.04;100.00;100197.31;5059390;28;20056;-80
2023/01/19 08:25:37;;;;;;;33.90;16.50;;;;;;;0.01;100.00;100202.13;5027970;28;20127;-80
2023/01/19 08:28:05;;;;;;;38.72;16.38;;;;;;;0.07;100.00;100199.97;5046774;28;20067;-80
2023/01/19 08:30:31;;;;;;;34.50;17.45;;;;;;;0.07;100.00;100206.81;5050786;28;20047;-80
2023/01/19 08:33:02;;;;;;;42.22;17.88;;;;;;;0.17;100.00;100208.66;5048151;28;20608;-80
2023/01/19 08:35:36;;;;;;;38.28;17.90;;;;;;;0.21;100.00;100205.88;5060227;28;20048;-79
2023/01/19 08:38:02;;;;;;;40.67;18.40;;;;;;;0.09;100.00;100213.44;5049942;28;20043;-80
2023/01/19 08:40:33;;;;;;;45.03;19.73;;;;;;;0.24;100.00;100205.69;5063060;28;20123;-79
2023/01/19 08:43:05;;;;;;;45.50;18.80;;;;;;;0.17;100.00;100218.84;5062734;28;20736;-79
2023/01/19 08:45:31;;;;;;;45.13;19.57;;;;;;;0.32;100.00;100218.72;5046901;28;20041;-80
2023/01/19 08:47:58;;;;;;;47.03;20.65;;;;;;;0.23;100.00;100220.19;5050610;28;20040;-80
2023/01/19 08:50:24;;;;;;;40.72;19.40;;;;;;;0.23;100.00;100230.38;5048240;28;20069;-81
2023/01/19 08:52:50;;;;;;;45.75;19.65;;;;;;;0.16;100.00;100224.84;5064866;28;20401;-81
2023/01/19 08:55:16;;;;;;;49.50;21.30;;;;;;;0.12;100.00;100230.28;5045032;28;20041;-79
2023/01/19 08:57:42;;;;;;;46.10;21.52;;;;;;;0.15;100.00;100233.44;5059681;28;20033;-79
2023/01/19 09:00:09;;;;;;;55.38;22.75;;;;;;;0.20;100.00;100238.22;5045970;28;20052;-81
2023/01/19 09:02:35;;;;;;;51.47;21.00;;;;;;;0.21;100.00;100236.47;5047332;28;20041;-80
2023/01/19 09:05:03;;;;;;;50.95;21.77;;;;;;;0.35;100.00;100233.81;5046787;28;20539;-81
2023/01/19 09:07:29;;;;;;;48.90;21.20;;;;;;;0.36;100.00;100230.38;5058806;28;20041;-80
2023/01/19 09:09:54;;;;;;;53.25;21.63;;;;;;;0.32;100.00;100234.03;5069131;28;20039;-80
2023/01/19 09:12:20;;;;;;;47.20;21.52;;;;;;;0.28;100.00;100240.25;5048668;28;20036;-81
2023/01/19 09:14:45;;;;;;;59.63;21.63;;;;;;;0.36;100.00;100251.59;5062748;28;20091;-80
2023/01/19 09:17:13;;;;;;;48.30;22.10;;;;;;;0.33;100.00;100250.97;5051834;28;20032;-80
2023/01/19 09:19:39;;;;;;;54.60;22.83;;;;;;;0.26;100.00;100252.28;5043311;28;20021;-80
2023/01/19 09:22:05;;;;;;;46.33;21.33;;;;;;;0.19;100.00;100251.91;5031743;28;20029;-81
2023/01/19 09:24:30;;;;;;;49.83;21.45;;;;;;;0.27;100.00;100256.50;5046020;28;20037;-81
2023/01/19 09:26:56;;;;;;;55.33;22.50;;;;;;;0.28;100.00;100266.56;5046872;28;20469;-79
2023/01/19 09:29:21;;;;;;;55.03;20.63;;;;;;;0.33;100.00;100267.09;5032353;28;20440;-80
2023/01/19 09:31:47;;;;;;;52.63;22.67;;;;;;;0.35;100.00;100267.78;5050597;28;20547;-81
2023/01/19 09:34:13;;;;;;;59.92;22.88;;;;;;;0.31;100.00;100279.13;5046431;28;20669;-80
2023/01/19 09:36:38;;;;;;;61.47;23.58;;;;;;;0.31;100.00;100283.41;5032091;28;20064;-80
2023/01/19 09:39:04;;;;;;;60.45;23.63;;;;;;;0.40;100.00;100293.00;5047408;28;20087;-81
2023/01/19 09:41:34;;;;;;;69.82;24.48;;;;;;;0.38;100.00;100287.19;5048473;28;20045;-80
2023/01/19 09:43:59;;;;;;;64.10;24.60;;;;;;;0.28;100.00;100298.91;5045099;28;20036;-79
2023/01/19 09:46:40;;;;;;;67.50;25.00;;;;;;;0.31;100.00;100301.28;5031199;28;20182;-79
2023/01/19 09:49:14;;;;;;;61.58;24.85;;;;;;;0.42;100.00;100300.56;5065663;28;20496;-80
2023/01/19 09:51:45;;;;;;;67.50;24.85;;;;;;;0.41;100.00;100302.28;5047059;28;20064;-80
2023/01/19 09:54:14;;;;;;;61.38;23.90;;;;;;;0.48;100.00;100305.25;5047733;28;20044;-79
2023/01/19 09:56:42;;;;;;;66.50;23.88;;;;;;;0.53;100.00;100316.78;5047559;28;20501;-79
2023/01/19 09:59:18;;;;;;;62.30;24.42;;;;;;;0.49;100.00;100311.97;5032472;28;20048;-79
2023/01/19 10:02:11;;;;;;;63.17;23.95;;;;;;;0.51;100.00;100317.78;5048747;28;20048;-79
2023/01/19 10:04:36;;;;;;;55.88;22.35;;;;;;;0.41;100.00;100317.59;5035072;28;20094;-79
2023/01/19 10:07:28;;;;;;;61.28;23.30;;;;;;;0.49;100.00;100317.06;5049675;28;20608;-79
2023/01/19 10:10:21;;;;;;;68.28;24.45;;;;;;;0.56;100.00;100318.31;5002712;28;20570;-79
2023/01/19 10:13:08;;;;;;;57.60;22.67;;;;;;;0.55;100.00;100322.59;5061098;28;20035;-80
2023/01/19 10:16:02;;;;;;;66.00;24.58;;;;;;;0.66;100.00;100324.44;5060249;28;20102;-79
2023/01/19 10:18:42;;;;;;;72.47;24.02;;;;;;;0.69;100.00;100329.31;5063267;28;20048;-78
2023/01/19 10:21:09;;;;;;;70.47;24.95;;;;;;;0.68;100.00;100334.50;5047971;28;20374;-80
2023/01/19 10:23:40;;;;;;;64.13;25.83;;;;;;;0.65;100.00;100325.34;5044370;28;20041;-80
2023/01/19 10:26:32;;;;;;;66.22;25.02;;;;;;;0.68;100.00;100337.91;5046061;28;20044;-81
2023/01/19 10:29:29;;;;;;;61.60;24.45;;;;;;;0.76;100.00;100337.38;5061608;28;20943;-80
2023/01/19 10:32:08;;;;;;;65.13;24.30;;;;;;;0.77;100.00;100342.41;5054812;28;20060;-80
2023/01/19 10:34:34;;;;;;;69.85;24.73;;;;;;;0.88;100.00;100344.19;5028982;28;20037;-78
2023/01/19 10:37:15;;;;;;;66.25;25.15;;;;;;;0.81;100.00;100350.66;5048901;28;20108;-80
2023/01/19 10:39:41;;;;;;;64.80;24.83;;;;;;;0.76;100.00;100345.03;5060191;28;20043;-79
2023/01/19 10:42:11;;;;;;;61.45;22.45;;;;;;;0.71;100.00;100347.88;5048157;28;20521;-79
2023/01/19 10:44:37;;;;;;;62.75;24.33;;;;;;;0.65;100.00;100352.59;5063669;28;20090;-80
2023/01/19 10:47:05;;;;;;;69.38;25.05;;;;;;;0.73;100.00;100347.78;5045764;28;20024;-79
2023/01/19 10:49:37;;;;;;;68.82;24.70;;;;;;;0.67;100.00;100338.00;5042951;28;20068;-79
2023/01/19 10:52:05;;;;;;;65.37;23.77;;;;;;;0.71;100.00;100340.22;5049627;28;20029;-77
2023/01/19 10:54:33;;;;;;;63.08;24.40;;;;;;;0.82;100.00;100344.63;5063177;28;20037;-80
2023/01/19 10:57:06;;;;;;;84.35;25.95;;;;;;;0.83;100.00;100343.72;5043217;28;20060;-80
2023/01/19 10:59:45;;;;;;;72.25;23.85;;;;;;;0.90;100.00;100339.78;5029569;28;20040;-80
2023/01/19 11:02:19;;;;;;;68.78;25.40;;;;;;;0.99;100.00;100340.91;5048406;28;20405;-81
2023/01/19 11:04:48;;;;;;;65.68;24.48;;;;;;;0.97;100.00;100346.13;5063222;28;20032;-80
2023/01/19 11:07:15;;;;;;;65.90;25.63;;;;;;;1.00;100.00;100345.13;5057543;28;20032;-80
2023/01/19 11:09:40;;;;;;;66.07;23.65;;;;;;;0.93;100.00;100347.25;5058071;28;20033;-80
2023/01/19 11:12:15;;;;;;;70.50;23.90;;;;;;;1.00;100.00;100351.94;5042056;28;20483;-80
2023/01/19 11:14:41;;;;;;;58.30;24.27;;;;;;;1.02;100.00;100363.69;5047362;28;20083;-80
2023/01/19 11:17:18;;;;;;;67.50;23.88;;;;;;;0.99;100.00;100340.91;5044344;28;20033;-80
2023/01/19 11:19:53;;;;;;;65.05;24.15;;;;;;;1.05;100.00;100343.03;5041775;28;20033;-81
2023/01/19 11:22:26;;;;;;;66.85;22.92;;;;;;;1.13;100.00;100342.50;5045222;28;20119;-80
2023/01/19 11:24:57;;;;;;;73.07;24.05;;;;;;;1.20;100.00;100348.03;5045639;28;20043;-79